Time;durP1;ratioP1;P1;durP2;ratioP2;P2;SDS_P1;SDS_P2;PMS_P1;PMS_P2;Temp;Humidity;BMP_temperature;BMP_pressure;BME280_temperature;BME280_humidity;BME280_pressure;Samples;Min_cycle;Max_cycle;Signal;HPM_P1;HPM_P2
2021/05/25 00:00:28;;;;;;;;;32.50;32.00;;;;;15.84;87.17;101567.53;5134753;27;9999;-82
2021/05/25 00:03:24;;;;;;;;;35.25;34.25;;;;;16.05;86.19;101564.66;5108586;27;9779;-81
2021/05/25 00:06:19;;;;;;;;;29.75;29.75;;;;;16.02;85.49;101553.38;5149747;27;9671;-81
2021/05/25 00:09:18;;;;;;;;;21.50;20.25;;;;;16.05;85.74;101572.22;5142189;27;9715;-80
2021/05/25 00:12:15;;;;;;;;;38.50;35.75;;;;;16.00;85.27;101578.03;5156221;27;9708;-81
2021/05/25 00:15:14;;;;;;;;;42.00;37.75;;;;;16.12;84.49;101598.41;5141474;27;10103;-79
2021/05/25 00:17:44;;;;;;;;;44.00;39.00;;;;;16.15;84.36;101601.66;5156397;27;9970;-80
2021/05/25 00:20:39;;;;;;;;;45.25;39.00;;;;;16.19;83.79;101595.03;5154904;27;10149;-80
2021/05/25 00:23:35;;;;;;;;;47.25;40.75;;;;;16.24;82.94;101602.34;5141403;27;10212;-79
2021/05/25 00:26:32;;;;;;;;;42.75;38.50;;;;;16.23;82.63;101593.16;5154671;27;10361;-78
2021/05/25 00:29:27;;;;;;;;;49.00;42.25;;;;;16.23;82.58;101584.78;5155056;27;10310;-78
2021/05/25 00:32:24;;;;;;;;;42.50;38.25;;;;;16.25;82.74;101590.03;5154750;27;10506;-79
2021/05/25 00:35:19;;;;;;;;;44.50;39.50;;;;;16.30;82.28;101576.66;5146857;27;10296;-79
2021/05/25 00:38:15;;;;;;;;;44.00;38.75;;;;;16.18;82.15;101589.78;5134009;27;10534;-79
2021/05/25 00:41:10;;;;;;;;;39.75;35.50;;;;;16.19;81.79;101591.44;5133626;27;9995;-78
2021/05/25 00:44:08;;;;;;;;;27.75;27.25;;;;;15.97;82.15;101599.06;5134175;27;10221;-80
2021/05/25 00:47:04;;;;;;;;;27.50;27.00;;;;;15.66;83.62;101604.34;5133982;27;9551;-79
2021/05/25 00:50:10;;;;;;;;;28.33;28.33;;;;;15.88;82.93;101609.50;5120225;27;9513;-79
2021/05/25 00:52:44;;;;;;;;;22.00;22.00;;;;;15.93;82.23;101612.06;5101692;27;9388;-78
2021/05/25 00:55:39;;;;;;;;;23.75;23.75;;;;;15.84;82.78;101614.13;5135876;27;9434;-78
2021/05/25 00:58:35;;;;;;;;;20.25;20.25;;;;;15.71;83.58;101607.69;5134174;27;9571;-78
2021/05/25 01:01:31;;;;;;;;;19.00;19.00;;;;;15.80;83.08;101619.59;5133455;27;9673;-79
2021/05/25 01:04:26;;;;;;;;;25.33;24.00;;;;;15.75;83.44;101619.81;5133853;27;9587;-78
2021/05/25 01:07:22;;;;;;;;;24.00;24.00;;;;;15.66;83.97;101621.06;5133669;27;9447;-78
2021/05/25 01:10:28;;;;;;;;;23.33;23.33;;;;;15.71;83.66;101629.19;5133537;27;9517;-78
2021/05/25 01:13:27;;;;;;;;;26.25;26.25;;;;;15.65;83.65;101625.81;5133734;27;10129;-77
2021/05/25 01:16:26;;;;;;;;;25.00;25.00;;;;;15.65;83.91;101634.19;5133195;27;9635;-78
2021/05/25 01:19:23;;;;;;;;;23.50;23.50;;;;;15.63;84.45;101632.88;5119654;27;9437;-77
2021/05/25 01:22:19;;;;;;;;;23.25;23.25;;;;;15.67;84.36;101648.59;5119803;27;9671;-77
2021/05/25 01:25:16;;;;;;;;;25.00;24.50;;;;;15.74;84.17;101660.00;5119801;27;9620;-77
2021/05/25 01:28:15;;;;;;;;;21.50;21.50;;;;;15.65;84.60;101650.91;5133142;27;9584;-77
2021/05/25 01:31:13;;;;;;;;;24.33;24.33;;;;;15.46;85.17;101647.75;5132901;27;9594;-78
2021/05/25 01:34:08;;;;;;;;;25.00;25.00;;;;;15.62;84.49;101659.13;5133451;27;9452;-77
2021/05/25 01:37:07;;;;;;;;;25.00;25.00;;;;;15.55;85.15;101668.03;5133166;27;9727;-78
2021/05/25 01:40:04;;;;;;;;;22.50;22.50;;;;;15.65;84.74;101662.06;5133890;27;10242;-77
2021/05/25 01:43:04;;;;;;;;;22.50;22.50;;;;;15.47;85.28;101660.53;5119593;27;9586;-78
2021/05/25 01:46:00;;;;;;;;;29.50;28.75;;;;;15.54;85.32;101663.59;5132853;27;9545;-78
2021/05/25 01:48:55;;;;;;;;;23.00;23.00;;;;;15.39;85.97;101661.44;5132495;27;9530;-77
2021/05/25 01:51:53;;;;;;;;;22.75;22.50;;;;;15.41;85.63;101673.88;5131918;27;9667;-78
2021/05/25 01:54:58;;;;;;;;;23.25;23.25;;;;;15.51;85.07;101679.03;5131443;27;9573;-78
2021/05/25 01:58:18;;;;;;;;;24.33;24.33;;;;;15.36;85.89;101676.88;5133114;27;9535;-79
2021/05/25 02:01:15;;;;;;;;;24.50;24.50;;;;;15.53;85.25;101684.28;5132610;27;9479;-77
2021/05/25 02:04:10;;;;;;;;;26.00;25.50;;;;;15.54;84.96;101694.28;5133450;27;9507;-77
2021/05/25 02:07:08;;;;;;;;;24.25;24.25;;;;;15.57;85.34;101693.59;5119120;27;9681;-77
2021/05/25 02:10:04;;;;;;;;;22.00;22.00;;;;;15.25;86.39;101695.94;5132863;27;10263;-78
2021/05/25 02:12:39;;;;;;;;;23.75;23.75;;;;;15.24;86.47;101701.88;5133700;27;9457;-78
2021/05/25 02:15:36;;;;;;;;;37.75;34.50;;;;;15.29;86.20;101710.84;5132758;27;9381;-78
2021/05/25 02:18:36;;;;;;;;;39.25;36.50;;;;;15.13;87.04;101712.59;5132563;27;10189;-76
2021/05/25 02:21:31;;;;;;;;;43.75;38.50;;;;;15.11;86.81;101705.75;5132325;27;10160;-77
2021/05/25 02:24:27;;;;;;;;;43.75;38.50;;;;;15.26;86.32;101714.34;5132665;27;10267;-76
2021/05/25 02:27:25;;;;;;;;;41.50;37.50;;;;;15.46;85.69;101715.47;5132918;27;10342;-76
2021/05/25 02:30:22;;;;;;;;;38.75;35.75;;;;;15.32;86.30;101712.13;5136277;27;10367;-76
2021/05/25 02:33:20;;;;;;;;;40.00;35.75;;;;;15.29;86.21;101722.00;5135561;27;10245;-76
2021/05/25 02:36:15;;;;;;;;;43.00;37.50;;;;;15.02;87.68;101717.72;5144743;27;10170;-77
2021/05/25 02:39:11;;;;;;;;;40.75;35.50;;;;;15.21;87.12;101719.28;5157051;27;10208;-77
2021/05/25 02:42:06;;;;;;;;;43.75;36.75;;;;;15.41;86.56;101720.44;5156996;27;10264;-76
2021/05/25 02:45:03;;;;;;;;;27.75;26.75;;;;;15.42;86.42;101725.69;5143213;27;10225;-77
2021/05/25 02:47:32;;;;;;;;;37.00;33.25;;;;;15.49;86.47;101725.97;5158679;27;9940;-76
2021/05/25 02:50:28;;;;;;;;;34.25;33.00;;;;;15.52;86.67;101735.63;5149349;27;9843;-76
2021/05/25 02:53:13;;;;;;;;;32.00;30.00;;;;;15.74;86.09;101737.28;5153179;27;9846;-77
2021/05/25 02:56:09;;;;;;;;;27.50;27.50;;;;;15.72;86.10;101736.78;5147457;27;9663;-77
2021/05/25 02:59:06;;;;;;;;;24.50;24.25;;;;;15.58;86.98;101742.63;5142753;27;9598;-78
2021/05/25 03:02:02;;;;;;;;;22.75;22.75;;;;;15.67;86.50;101740.63;5143745;27;9595;-79
2021/05/25 03:04:59;;;;;;;;;33.75;33.25;;;;;15.75;86.39;101750.09;5154393;27;9513;-78
2021/05/25 03:07:57;;;;;;;;;24.25;24.25;;;;;15.76;86.44;101757.28;5156779;27;9610;-79
2021/05/25 03:10:53;;;;;;;;;26.00;26.00;;;;;15.93;85.87;101754.34;5135898;27;9608;-77
2021/05/25 03:13:48;;;;;;;;;49.75;40.75;;;;;15.92;86.03;101752.72;5135874;27;9567;-77
2021/05/25 03:16:19;;;;;;;;;51.50;42.00;;;;;16.00;86.09;101762.16;5137923;27;10083;-77
2021/05/25 03:19:16;;;;;;;;;64.25;50.25;;;;;16.12;85.27;101760.25;5135758;27;10345;-79
2021/05/25 03:22:13;;;;;;;;;66.75;53.50;;;;;16.31;84.90;101765.31;5121168;27;10915;-77
2021/05/25 03:25:11;;;;;;;;;54.75;46.00;;;;;16.54;85.03;101765.72;5134419;27;11104;-76
2021/05/25 03:27:46;;;;;;;;;66.75;53.25;;;;;16.87;84.22;101767.69;5136155;27;10728;-76
2021/05/25 03:30:30;;;;;;;;;62.00;48.25;;;;;17.14;82.87;101771.78;5136348;27;10523;-76
2021/05/25 03:33:01;;;;;;;;;55.00;45.00;;;;;16.91;82.13;101777.00;5136218;27;10334;-75
2021/05/25 03:35:39;;;;;;;;;56.25;45.00;;;;;17.24;83.06;101777.69;5127704;27;10317;-76
2021/05/25 03:38:35;;;;;;;;;46.00;37.00;;;;;17.14;82.11;101772.59;5141014;27;10144;-76
2021/05/25 03:41:35;;;;;;;;;47.50;40.50;;;;;16.98;81.12;101773.63;5136991;27;9752;-76
2021/05/25 03:44:31;;;;;;;;;51.00;42.00;;;;;17.37;82.13;101764.53;5160350;27;10061;-75
2021/05/25 03:47:27;;;;;;;;;49.25;41.75;;;;;17.53;81.45;101767.44;5150557;27;9810;-74
2021/05/25 03:49:55;;;;;;;;;50.00;42.25;;;;;17.39;80.41;101770.59;5135954;27;9539;-76
2021/05/25 03:52:39;;;;;;;;;33.00;32.00;;;;;17.65;79.57;101766.59;5135782;27;9734;-76
2021/05/25 04:00:53;;;;;;;;;26.25;25.25;;;;;18.18;76.73;101767.41;5142068;27;8830;-78
2021/05/25 04:03:35;;;;;;;;;25.75;24.25;;;;;18.27;77.85;101765.25;5140647;27;9025;-75
2021/05/25 04:06:03;;;;;;;;;19.75;19.75;;;;;18.47;75.49;101769.78;5133299;27;8846;-75
2021/05/25 04:08:47;;;;;;;;;13.25;13.25;;;;;17.98;75.36;101774.81;5144090;27;8829;-74
2021/05/25 04:11:29;;;;;;;;;13.00;13.00;;;;;17.49;76.38;101777.72;5141431;27;8855;-76
2021/05/25 04:13:57;;;;;;;;;19.75;19.75;;;;;17.85;77.05;101785.22;5135638;27;9616;-74
2021/05/25 04:16:26;;;;;;;;;15.75;15.75;;;;;18.07;77.13;101800.66;5117920;27;8877;-74
2021/05/25 04:19:22;;;;;;;;;20.50;20.50;;;;;18.26;77.45;101812.03;5151338;27;8844;-75
2021/05/25 04:21:51;;;;;;;;;15.25;15.25;;;;;18.12;76.09;101816.41;5156505;27;8821;-75
2021/05/25 04:24:37;;;;;;;;;15.00;15.00;;;;;18.50;76.58;101813.09;5126610;27;8835;-76
2021/05/25 04:27:05;;;;;;;;;17.25;17.00;;;;;18.85;74.83;101805.66;5134109;27;8843;-76
2021/05/25 04:30:00;;;;;;;;;13.25;13.25;;;;;18.92;73.83;101816.25;5122614;27;8831;-76
2021/05/25 04:32:34;;;;;;;;;19.50;19.50;;;;;19.20;73.51;101818.16;5156050;27;8817;-83
2021/05/25 04:35:06;;;;;;;;;18.75;18.25;;;;;19.41;72.64;101818.69;5155980;27;8864;-84
2021/05/25 04:37:34;;;;;;;;;12.75;12.75;;;;;19.35;71.38;101817.34;5137690;27;8852;-82
2021/05/25 04:40:06;;;;;;;;;16.25;16.25;;;;;19.49;71.50;101822.50;5155645;27;8903;-81
2021/05/25 04:42:36;;;;;;;;;17.00;17.00;;;;;19.40;70.71;101828.28;5155796;27;8829;-80
2021/05/25 04:45:09;;;;;;;;;14.00;14.00;;;;;18.99;71.77;101833.25;5138268;27;8845;-80
2021/05/25 04:47:37;;;;;;;;;14.25;14.25;;;;;18.70;72.13;101833.66;5155508;27;8975;-80
2021/05/25 04:50:07;;;;;;;;;10.50;10.50;;;;;18.80;71.86;101845.19;5155923;27;8837;-82
2021/05/25 04:52:35;;;;;;;;;11.50;11.50;;;;;18.55;71.36;101844.44;5155271;27;8937;-81
2021/05/25 04:55:08;;;;;;;;;12.00;12.00;;;;;18.59;72.33;101845.38;5137612;27;8853;-82
2021/05/25 04:57:36;;;;;;;;;12.00;12.00;;;;;18.84;71.16;101840.47;5137198;27;8959;-83
2021/05/25 05:00:10;;;;;;;;;9.75;9.75;;;;;18.80;71.14;101842.38;5137573;27;8871;-82
2021/05/25 05:02:43;;;;;;;;;12.25;12.25;;;;;18.70;71.54;101840.09;5137564;27;8821;-82
2021/05/25 05:05:15;;;;;;;;;14.00;12.50;;;;;18.54;72.04;101848.44;5137531;27;8836;-80
2021/05/25 05:07:44;;;;;;;;;12.00;12.00;;;;;18.63;71.57;101851.06;5155815;27;8825;-84
2021/05/25 05:10:17;;;;;;;;;5.00;5.00;;;;;18.83;71.78;101849.25;5155686;27;8935;-81
2021/05/25 05:12:45;;;;;;;;;10.50;10.50;;;;;18.83;71.31;101854.84;5137236;27;8882;-83
2021/05/25 05:15:13;;;;;;;;;10.00;10.00;;;;;19.00;70.16;101853.69;5155442;27;8837;-83
2021/05/25 05:17:47;;;;;;;;;15.25;15.25;;;;;19.11;70.25;101844.41;5156813;27;8814;-82
2021/05/25 05:20:17;;;;;;;;;15.75;14.75;;;;;19.39;69.37;101852.69;5140338;27;9649;-82
2021/05/25 05:22:49;;;;;;;;;12.00;12.00;;;;;19.41;68.77;101849.56;5138715;27;8936;-83
2021/05/25 05:25:16;;;;;;;;;17.75;16.25;;;;;19.78;68.60;101846.44;5155193;27;8849;-84
2021/05/25 05:27:45;;;;;;;;;16.50;16.50;;;;;19.75;67.93;101850.78;5155794;27;8857;-83
2021/05/25 05:30:14;;;;;;;;;15.00;15.00;;;;;20.18;66.89;101846.94;5155017;27;8851;-83
2021/05/25 05:32:43;;;;;;;;;13.00;13.00;;;;;20.15;65.67;101841.25;5155572;27;8837;-86
2021/05/25 05:35:11;;;;;;;;;12.25;12.00;;;;;20.49;65.39;101851.63;5140613;27;8879;-85
2021/05/25 05:37:39;;;;;;;;;10.50;10.50;;;;;20.40;65.09;101858.63;5157784;27;8833;-84
2021/05/25 05:40:08;;;;;;;;;13.75;13.75;;;;;20.53;65.87;101860.13;5155414;27;8874;-87
2021/05/25 05:42:56;;;;;;;;;10.75;10.75;;;;;20.41;65.41;101866.69;5142746;27;8821;-84
2021/05/25 05:45:27;;;;;;;;;11.00;11.00;;;;;19.89;66.21;101869.97;5137531;27;8832;-84
2021/05/25 05:47:55;;;;;;;;;12.00;12.00;;;;;19.97;66.30;101869.75;5155922;27;9008;-79
2021/05/25 05:50:22;;;;;;;;;11.75;11.75;;;;;19.62;66.69;101866.91;5155260;27;8829;-83
2021/05/25 05:52:50;;;;;;;;;15.50;14.50;;;;;19.51;67.16;101867.81;5155821;27;8821;-83
2021/05/25 05:55:18;;;;;;;;;14.50;14.50;;;;;19.81;67.86;101857.75;5137787;27;8845;-84
2021/05/25 05:57:47;;;;;;;;;16.75;16.75;;;;;19.51;67.88;101865.00;5158000;27;8943;-89
2021/05/25 06:00:16;;;;;;;;;13.75;13.75;;;;;19.68;67.92;101862.66;5138903;27;8860;-85
2021/05/25 06:02:50;;;;;;;;;17.25;17.25;;;;;19.86;66.81;101865.91;5157350;27;8817;-84
2021/05/25 06:05:20;;;;;;;;;13.50;13.50;;;;;19.56;67.14;101871.16;5141725;27;8848;-81
2021/05/25 06:07:48;;;;;;;;;15.50;15.50;;;;;19.32;68.44;101868.53;5145331;27;8802;-85
2021/05/25 06:10:19;;;;;;;;;15.50;15.50;;;;;19.29;68.79;101875.69;5143210;27;9506;-82
2021/05/25 06:12:47;;;;;;;;;16.50;16.50;;;;;19.28;68.81;101868.47;5142335;27;8880;-84
2021/05/25 06:15:14;;;;;;;;;17.00;17.00;;;;;19.48;68.24;101871.38;5159590;27;8872;-83
2021/05/25 06:17:42;;;;;;;;;16.25;16.25;;;;;19.78;67.81;101866.88;5142777;27;8917;-84
2021/05/25 06:20:12;;;;;;;;;16.25;16.25;;;;;19.84;67.64;101862.63;5142822;27;8833;-84
2021/05/25 06:22:43;;;;;;;;;13.50;13.50;;;;;19.68;66.82;101870.25;5144181;27;8821;-83
2021/05/25 06:25:13;;;;;;;;;14.50;14.50;;;;;19.91;67.08;101870.41;5133145;27;8863;-86
2021/05/25 06:27:46;;;;;;;;;13.50;13.50;;;;;20.37;66.16;101874.22;5143546;27;8840;-84
2021/05/25 06:30:14;;;;;;;;;16.75;16.00;;;;;20.18;65.42;101874.22;5160864;27;8940;-83
2021/05/25 06:32:45;;;;;;;;;16.50;16.50;;;;;20.17;66.26;101875.41;5143669;27;8924;-88
2021/05/25 06:35:14;;;;;;;;;14.75;14.75;;;;;20.47;65.37;101881.28;5145458;27;8829;-86
2021/05/25 06:37:43;;;;;;;;;15.50;15.00;;;;;20.63;65.21;101876.41;5159083;27;8825;-80
2021/05/25 06:40:12;;;;;;;;;14.25;14.25;;;;;20.82;64.44;101873.56;5155820;27;8835;-79
2021/05/25 06:42:40;;;;;;;;;15.00;14.25;;;;;21.14;63.89;101864.88;5146308;27;8825;-79
2021/05/25 06:45:10;;;;;;;;;14.75;14.75;;;;;21.36;62.73;101858.47;5154185;27;8946;-78
2021/05/25 06:48:06;;;;;;;;;10.00;10.00;;;;;21.53;60.67;101845.06;5123361;27;8860;-78
2021/05/25 06:51:04;;;;;;;;;19.25;19.25;;;;;21.53;62.28;101848.69;5135934;27;8846;-77
2021/05/25 06:54:03;;;;;;;;;18.25;18.25;;;;;21.66;61.58;101849.28;5135637;27;8926;-78
2021/05/25 06:56:35;;;;;;;;;11.50;11.00;;;;;21.78;60.59;101848.28;5145863;27;8995;-79
2021/05/25 06:59:32;;;;;;;;;10.25;10.25;;;;;21.96;59.24;101846.53;5140807;27;8943;-79
2021/05/25 07:02:02;;;;;;;;;12.00;12.00;;;;;21.66;59.91;101832.41;5141514;27;8850;-80
2021/05/25 07:05:03;;;;;;;;;12.00;12.00;;;;;21.84;60.64;101825.03;5143781;27;8829;-78
2021/05/25 07:07:30;;;;;;;;;18.25;18.00;;;;;22.34;59.69;101825.72;5137895;27;8846;-78
2021/05/25 07:09:58;;;;;;;;;30.75;26.75;;;;;22.60;58.64;101824.78;5136763;27;8846;-78
2021/05/25 07:12:54;;;;;;;;;35.50;32.50;;;;;22.41;59.59;101825.00;5135507;27;8846;-77
2021/05/25 07:15:49;;;;;;;;;25.25;25.25;;;;;22.46;58.61;101819.81;5122044;27;8831;-78
2021/05/25 07:18:46;;;;;;;;;49.25;39.75;;;;;22.71;58.76;101827.75;5145707;27;8859;-78
2021/05/25 07:21:44;;;;;;;;;39.50;33.25;;;;;23.07;58.55;101820.44;5144251;27;8829;-78
2021/05/25 07:24:40;;;;;;;;;16.80;16.00;;;;;23.14;56.51;101820.50;5142005;27;8841;-78
2021/05/25 07:27:13;;;;;;;;;13.60;12.80;;;;;22.98;57.26;101826.41;5136083;27;8849;-77
2021/05/25 07:29:45;;;;;;;;;16.80;16.80;;;;;23.11;57.13;101826.13;5157303;27;8813;-78
2021/05/25 07:32:13;;;;;;;;;67.50;52.50;;;;;23.20;57.37;101832.25;5135707;27;8957;-77
2021/05/25 07:34:44;;;;;;;;;10.80;10.80;;;;;23.12;56.31;101841.88;5131604;27;8908;-79
2021/05/25 07:37:15;;;;;;;;;14.60;13.00;;;;;23.52;56.34;101836.13;5136163;27;8831;-78
2021/05/25 07:40:14;;;;;;;;;12.40;12.40;;;;;23.52;55.50;101838.97;5153328;27;8829;-77
2021/05/25 07:42:51;;;;;;;;;9.00;8.80;;;;;23.53;54.43;101839.78;5144676;27;8900;-79
2021/05/25 07:45:22;;;;;;;;;30.75;30.00;;;;;23.55;56.00;101826.91;5136037;27;8865;-77
2021/05/25 07:47:49;;;;;;;;;15.00;15.00;;;;;24.01;54.34;101825.59;5140863;27;8889;-76
2021/05/25 07:50:45;;;;;;;;;8.40;8.40;;;;;23.91;53.43;101826.31;5134891;27;8961;-77
2021/05/25 07:53:14;;;;;;;;;4.80;4.80;;;;;23.77;53.13;101815.75;5145953;27;8835;-77
2021/05/25 07:55:42;;;;;;;;;10.40;9.60;;;;;23.94;53.37;101822.72;5138753;27;8909;-78
2021/05/25 07:58:11;;;;;;;;;8.80;8.80;;;;;24.22;51.93;101831.31;5156897;27;8833;-78
2021/05/25 08:00:39;;;;;;;;;4.80;4.80;;;;;24.49;51.20;101826.22;5156612;27;8841;-78
2021/05/25 08:03:06;;;;;;;;;14.00;13.80;;;;;24.64;50.99;101815.75;5156600;27;8853;-76
2021/05/25 08:05:37;;;;;;;;;8.60;8.60;;;;;24.24;50.65;101830.94;5144737;27;8839;-79
2021/05/25 08:08:33;;;;;;;;;6.80;6.80;;;;;24.56;49.34;101811.28;5134805;27;8866;-78
2021/05/25 08:11:11;;;;;;;;;8.00;8.00;;;;;24.79;49.05;101817.41;5135661;27;9688;-76
2021/05/25 08:14:09;;;;;;;;;3.80;3.80;;;;;24.91;47.88;101822.66;5134598;27;8831;-77
2021/05/25 08:17:17;;;;;;;;;18.00;13.60;;;;;25.43;48.06;101811.75;5134292;27;8816;-77
2021/05/25 08:20:17;;;;;;;;;5.20;5.20;;;;;25.77;47.47;101814.19;5134326;27;8853;-79
2021/05/25 08:23:08;;;;;;;;;4.00;4.00;;;;;25.35;46.27;101813.00;5135315;27;8847;-76
2021/05/25 08:25:43;;;;;;;;;7.60;7.60;;;;;25.51;46.69;101813.38;5134410;27;8843;-77
2021/05/25 08:28:14;;;;;;;;;4.20;4.20;;;;;24.88;47.25;101805.69;5135579;27;8835;-79
2021/05/25 08:30:50;;;;;;;;;3.20;3.20;;;;;24.78;47.14;101809.31;5135456;27;8859;-76
2021/05/25 08:33:18;;;;;;;;;6.20;6.20;;;;;25.00;48.07;101810.13;5135264;27;8835;-77
2021/05/25 08:35:50;;;;;;;;;6.00;6.00;;;;;25.25;47.80;101815.84;5134984;27;9663;-76
2021/05/25 08:38:23;;;;;;;;;4.40;4.40;;;;;25.17;47.88;101812.19;5135333;27;8865;-74
2021/05/25 08:40:55;;;;;;;;;2.80;2.80;;;;;24.96;48.08;101816.59;5117517;27;8831;-74
2021/05/25 08:43:25;;;;;;;;;3.20;3.20;;;;;24.99;47.30;101809.31;5155724;27;8833;-74
2021/05/25 08:46:27;;;;;;;;;3.20;3.20;;;;;24.94;47.71;101810.53;5154862;27;8853;-75
2021/05/25 08:48:56;;;;;;;;;5.40;5.40;;;;;25.25;47.07;101810.19;5155729;27;8943;-78
2021/05/25 08:51:24;;;;;;;;;5.20;5.20;;;;;25.55;45.77;101806.91;5154138;27;8837;-77
2021/05/25 08:53:57;;;;;;;;;4.80;4.80;;;;;26.13;45.66;101814.84;5137791;27;8840;-76
2021/05/25 08:56:29;;;;;;;;;1.40;1.40;;;;;26.28;44.18;101812.75;5137462;27;8849;-77
2021/05/25 08:58:59;;;;;;;;;5.20;5.20;;;;;25.91;45.09;101797.09;5155440;27;8829;-76
2021/05/25 09:01:55;;;;;;;;;5.00;5.00;;;;;25.89;45.79;101793.09;5153909;27;8891;-76
2021/05/25 09:04:22;;;;;;;;;4.00;4.00;;;;;25.70;44.31;101780.97;5136639;27;8905;-78
2021/05/25 09:07:12;;;;;;;;;3.00;3.00;;;;;25.54;43.67;101774.16;5154682;27;8829;-77
2021/05/25 09:09:52;;;;;;;;;4.80;4.80;;;;;25.63;44.19;101783.81;5155275;27;8857;-76
2021/05/25 09:12:20;;;;;;;;;3.60;3.60;;;;;25.28;45.44;101786.72;5155159;27;8837;-76
2021/05/25 09:15:41;;;;;;;;;5.60;5.60;;;;;24.86;47.55;101783.44;5133364;27;8969;-76
2021/05/25 09:18:15;;;;;;;;;4.60;4.60;;;;;25.36;45.31;101785.47;5134603;27;8846;-77
2021/05/25 09:20:45;;;;;;;;;3.00;3.00;;;;;25.58;42.89;101772.91;5134032;27;8823;-77
2021/05/25 09:23:20;;;;;;;;;3.00;3.00;;;;;25.72;42.41;101772.09;5134032;27;8858;-76
2021/05/25 09:25:58;;;;;;;;;3.80;3.80;;;;;25.82;44.14;101776.09;5134508;27;8846;-76
2021/05/25 09:28:25;;;;;;;;;29.00;28.50;;;;;25.64;43.93;101767.63;5134126;27;8843;-76
2021/05/25 09:30:53;;;;;;;;;8.60;8.60;;;;;25.84;43.68;101776.50;5133799;27;8815;-76
2021/05/25 09:33:26;;;;;;;;;6.40;6.40;;;;;25.97;43.64;101783.34;5134195;27;9571;-77
2021/05/25 09:35:54;;;;;;;;;4.80;4.80;;;;;25.80;42.98;101785.00;5134028;27;8823;-77
2021/05/25 09:38:26;;;;;;;;;0.20;0.20;;;;;25.78;43.14;101784.63;5133844;27;8827;-77
2021/05/25 09:41:01;;;;;;;;;3.20;3.20;;;;;26.01;42.32;101778.47;5133921;27;8827;-77
2021/05/25 09:43:33;;;;;;;;;2.20;2.20;;;;;25.39;41.92;101776.19;5134172;27;9579;-76
2021/05/25 09:46:07;;;;;;;;;3.80;3.80;;;;;25.60;43.17;101781.78;5133903;27;8819;-77
2021/05/25 09:48:41;;;;;;;;;3.80;3.80;;;;;25.68;42.92;101772.06;5116106;27;8869;-77
2021/05/25 09:51:27;;;;;;;;;4.60;4.60;;;;;25.91;43.08;101782.13;5134104;27;8840;-76
2021/05/25 09:54:01;;;;;;;;;5.20;5.20;;;;;26.16;43.64;101774.34;5133693;27;9567;-76
2021/05/25 09:56:30;;;;;;;;;3.00;3.00;;;;;26.74;42.92;101775.63;5133699;27;8887;-77
2021/05/25 09:59:00;;;;;;;;;2.60;2.60;;;;;26.27;42.49;101772.25;5133880;27;8831;-78
2021/05/25 10:01:37;;;;;;;;;4.80;4.80;;;;;26.65;42.43;101765.97;5133456;27;8873;-77
2021/05/25 10:04:10;;;;;;;;;4.00;4.00;;;;;26.64;42.34;101762.34;5133571;27;8843;-76
2021/05/25 10:06:43;;;;;;;;;4.20;4.20;;;;;26.36;42.57;101771.00;5133734;27;8912;-76
2021/05/25 10:09:12;;;;;;;;;4.00;4.00;;;;;26.31;43.40;101778.72;5133409;27;8839;-75
2021/05/25 10:11:45;;;;;;;;;4.20;4.20;;;;;26.35;43.27;101773.03;5115782;27;8889;-78
2021/05/25 10:14:33;;;;;;;;;5.60;5.60;;;;;26.10;44.18;101776.00;5133590;27;9564;-76
2021/05/25 10:17:01;;;;;;;;;4.60;4.60;;;;;26.17;43.84;101769.50;5133424;27;8843;-76
2021/05/25 10:19:29;;;;;;;;;3.80;3.80;;;;;25.83;42.96;101763.53;5133081;27;8831;-75
2021/05/25 10:21:57;;;;;;;;;4.00;4.00;;;;;26.15;42.93;101760.56;5133448;27;8936;-75
2021/05/25 10:24:25;;;;;;;;;4.00;4.00;;;;;26.42;42.51;101747.50;5133514;27;8843;-76
2021/05/25 10:26:53;;;;;;;;;2.80;2.80;;;;;26.37;41.41;101749.91;5133468;27;8843;-77
2021/05/25 10:29:21;;;;;;;;;3.80;3.80;;;;;26.31;41.80;101749.56;5133328;27;8858;-77
2021/05/25 10:31:56;;;;;;;;;4.40;4.40;;;;;26.27;42.38;101758.06;5115273;27;8843;-76
2021/05/25 10:34:44;;;;;;;;;6.40;6.40;;;;;26.24;43.05;101766.63;5133375;27;8874;-77
2021/05/25 12:10:43;;;;;;;;;13.00;12.00;;;;;26.92;43.79;101723.63;5077400;27;1883887;-81
2021/05/25 12:13:16;;;;;;;;;17.40;17.40;;;;;27.43;43.15;101720.69;5131520;27;8834;-80
2021/05/25 12:16:17;;;;;;;;;13.20;13.20;;;;;27.56;42.30;101718.13;5130034;27;8890;-79
2021/05/25 12:18:57;;;;;;;;;11.20;11.20;;;;;27.57;42.07;101721.75;5083587;27;8845;-80
2021/05/25 12:21:26;;;;;;;;;8.80;8.80;;;;;27.35;41.55;101715.50;5129858;27;8853;-78
2021/05/25 12:23:57;;;;;;;;;8.60;8.60;;;;;27.51;41.85;101712.88;5132696;27;8830;-80
2021/05/25 12:26:46;;;;;;;;;10.40;10.40;;;;;28.00;41.30;101721.25;5123482;27;8853;-80
2021/05/25 12:29:32;;;;;;;;;11.20;10.80;;;;;27.93;41.45;101711.59;5110939;27;8907;-80
2021/05/25 12:32:12;;;;;;;;;16.60;15.80;;;;;27.62;41.54;101722.09;5097510;27;8883;-81
2021/05/25 12:34:49;;;;;;;;;12.60;12.60;;;;;27.59;41.89;101708.72;5101133;27;8837;-81
2021/05/25 12:37:35;;;;;;;;;13.60;13.60;;;;;28.37;41.37;101708.94;5121693;27;8952;-80
2021/05/25 12:40:23;;;;;;;;;13.00;13.00;;;;;28.58;40.76;101691.56;5135209;27;8856;-81
2021/05/25 12:43:28;;;;;;;;;12.00;12.00;;;;;29.03;39.51;101694.88;5135727;27;8838;-80
2021/05/25 12:46:10;;;;;;;;;10.20;9.20;;;;;29.21;39.82;101703.06;5127441;27;8853;-79
2021/05/25 12:48:43;;;;;;;;;12.60;12.60;;;;;29.74;38.42;101691.88;5132749;27;8855;-80
2021/05/25 12:51:27;;;;;;;;;13.20;11.80;;;;;30.00;37.24;101688.06;5139122;27;8865;-80
2021/05/25 12:54:01;;;;;;;;;10.40;10.40;;;;;30.01;36.12;101688.84;5122108;27;8861;-81
2021/05/25 12:56:56;;;;;;;;;10.80;10.80;;;;;30.05;36.18;101690.34;5103100;27;8857;-81
2021/05/25 12:59:30;;;;;;;;;13.40;13.40;;;;;30.31;36.23;101693.50;5117755;27;8841;-84
2021/05/25 13:02:10;;;;;;;;;12.40;12.40;;;;;30.56;35.36;101687.97;5113562;28;8930;-83
2021/05/25 13:04:40;;;;;;;;;8.00;8.00;;;;;31.05;34.43;101676.50;5101831;28;8837;-82
2021/05/25 13:07:56;;;;;;;;;12.80;11.20;;;;;30.94;35.40;101673.16;5100939;28;8860;-80
2021/05/25 13:11:05;;;;;;;;;9.00;9.00;;;;;31.12;35.49;101673.47;5115971;27;8835;-80
2021/05/25 13:13:43;;;;;;;;;11.40;11.40;;;;;30.83;35.54;101679.16;5135183;27;8850;-79
2021/05/25 13:16:29;;;;;;;;;12.40;11.40;;;;;29.67;35.35;101678.56;5130261;27;8847;-79
2021/05/25 13:19:42;;;;;;;;;9.00;7.80;;;;;30.59;34.69;101669.13;5118908;27;8819;-79
2021/05/25 13:22:40;;;;;;;;;18.40;18.00;;;;;30.66;34.17;101668.97;5134968;27;8827;-81
2021/05/25 13:25:35;;;;;;;;;13.60;12.80;;;;;30.40;35.20;101677.34;5134828;27;8866;-79
2021/05/25 13:28:06;;;;;;;;;9.20;9.20;;;;;29.85;35.34;101672.50;5118636;27;8932;-80
2021/05/25 13:31:21;;;;;;;;;10.40;10.00;;;;;29.61;36.07;101674.66;5135714;27;8855;-80
2021/05/25 13:33:50;;;;;;;;;13.60;13.60;;;;;29.60;36.29;101675.91;5130490;27;8845;-79
2021/05/25 13:36:49;;;;;;;;;9.00;9.00;;;;;29.02;37.21;101676.19;5118243;27;8862;-80
2021/05/25 13:39:34;;;;;;;;;30.40;23.40;;;;;28.65;38.50;101673.56;5115865;28;9618;-79
2021/05/25 13:42:02;;;;;;;;;14.40;14.40;;;;;28.57;38.58;101678.56;5132445;27;8869;-79
2021/05/25 13:44:47;;;;;;;;;10.80;10.80;;;;;29.10;38.04;101668.31;5136640;27;8839;-80
2021/05/25 13:47:43;;;;;;;;;15.20;14.00;;;;;28.77;38.70;101673.75;5135652;27;8823;-80
2021/05/25 13:50:24;;;;;;;;;12.20;10.40;;;;;28.95;38.57;101664.91;5136119;27;8977;-79
2021/05/25 13:52:54;;;;;;;;;12.00;12.00;;;;;28.92;37.46;101662.94;5136468;27;8923;-80
2021/05/25 13:55:26;;;;;;;;;20.00;19.60;;;;;29.08;38.21;101662.25;5117592;27;8877;-79
2021/05/25 13:58:09;;;;;;;;;9.60;9.60;;;;;28.56;37.99;101650.53;5119608;27;8839;-79
2021/05/25 14:03:29;;;;;;;;;8.00;8.00;;;;;28.81;38.00;101651.72;5136147;27;8858;-79
2021/05/25 14:06:24;;;;;;;;;12.00;12.00;;;;;28.50;38.83;101642.50;5134149;27;9016;-79
2021/05/25 14:09:23;;;;;;;;;5.20;5.20;;;;;27.79;39.50;101635.03;5100689;28;8821;-80